sensor_id;sensor_type;location;lat;lon;timestamp;temperature;humidity
33095;DHT22;19459;53.044;8.910;2023-08-24T00:01:20;19.20;99.90
33095;DHT22;19459;53.044;8.910;2023-08-24T00:03:46;19.10;99.90
33095;DHT22;19459;53.044;8.910;2023-08-24T00:06:13;19.00;99.90
33095;DHT22;19459;53.044;8.910;2023-08-24T00:08:39;18.90;99.90
33095;DHT22;19459;53.044;8.910;2023-08-24T00:11:05;18.90;99.90
33095;DHT22;19459;53.044;8.910;2023-08-24T00:13:31;18.90;99.90
33095;DHT22;19459;53.044;8.910;2023-08-24T00:15:57;18.80;99.90
33095;DHT22;19459;53.044;8.910;2023-08-24T00:18:24;18.70;99.90
33095;DHT22;19459;53.044;8.910;2023-08-24T00:20:50;18.70;99.90
33095;DHT22;19459;53.044;8.910;2023-08-24T00:23:17;18.60;99.90
33095;DHT22;19459;53.044;8.910;2023-08-24T00:25:43;18.60;99.90
33095;DHT22;19459;53.044;8.910;2023-08-24T00:28:09;18.50;99.90
33095;DHT22;19459;53.044;8.910;2023-08-24T00:30:36;18.40;99.90
33095;DHT22;19459;53.044;8.910;2023-08-24T00:33:03;18.40;99.90
33095;DHT22;19459;53.044;8.910;2023-08-24T00:35:29;18.40;99.90
33095;DHT22;19459;53.044;8.910;2023-08-24T00:37:56;18.30;99.90
33095;DHT22;19459;53.044;8.910;2023-08-24T00:40:22;18.20;99.90
33095;DHT22;19459;53.044;8.910;2023-08-24T00:42:47;18.20;99.90
33095;DHT22;19459;53.044;8.910;2023-08-24T00:45:14;18.10;99.90
33095;DHT22;19459;53.044;8.910;2023-08-24T00:47:46;18.10;99.90
33095;DHT22;19459;53.044;8.910;2023-08-24T00:50:13;18.00;99.90
33095;DHT22;19459;53.044;8.910;2023-08-24T00:52:41;18.00;99.90
33095;DHT22;19459;53.044;8.910;2023-08-24T00:55:08;17.90;99.90
33095;DHT22;19459;53.044;8.910;2023-08-24T00:57:36;17.90;99.90
33095;DHT22;19459;53.044;8.910;2023-08-24T01:00:04;17.90;99.90
33095;DHT22;19459;53.044;8.910;2023-08-24T01:02:31;17.80;99.90
33095;DHT22;19459;53.044;8.910;2023-08-24T01:04:58;17.80;99.90
33095;DHT22;19459;53.044;8.910;2023-08-24T01:07:24;17.80;99.90
33095;DHT22;19459;53.044;8.910;2023-08-24T01:09:51;17.70;99.90
33095;DHT22;19459;53.044;8.910;2023-08-24T01:12:25;17.70;99.90
33095;DHT22;19459;53.044;8.910;2023-08-24T01:15:29;17.70;99.90
33095;DHT22;19459;53.044;8.910;2023-08-24T01:18:13;17.60;99.90
33095;DHT22;19459;53.044;8.910;2023-08-24T01:20:41;17.60;99.90
33095;DHT22;19459;53.044;8.910;2023-08-24T01:23:41;17.50;99.90
33095;DHT22;19459;53.044;8.910;2023-08-24T01:26:21;17.50;99.90
33095;DHT22;19459;53.044;8.910;2023-08-24T01:28:47;17.50;99.90
33095;DHT22;19459;53.044;8.910;2023-08-24T01:31:14;17.50;99.90
33095;DHT22;19459;53.044;8.910;2023-08-24T01:33:44;17.40;99.90
33095;DHT22;19459;53.044;8.910;2023-08-24T01:36:12;17.40;99.90
33095;DHT22;19459;53.044;8.910;2023-08-24T01:38:40;17.40;99.90
33095;DHT22;19459;53.044;8.910;2023-08-24T01:43:47;17.30;99.90
33095;DHT22;19459;53.044;8.910;2023-08-24T01:46:17;17.30;99.90
33095;DHT22;19459;53.044;8.910;2023-08-24T01:48:43;17.20;99.90
33095;DHT22;19459;53.044;8.910;2023-08-24T01:51:10;17.30;99.90
33095;DHT22;19459;53.044;8.910;2023-08-24T01:53:37;17.20;99.90
33095;DHT22;19459;53.044;8.910;2023-08-24T01:56:13;17.20;99.90
33095;DHT22;19459;53.044;8.910;2023-08-24T01:58:41;17.20;99.90
33095;DHT22;19459;53.044;8.910;2023-08-24T02:01:08;17.20;99.90
33095;DHT22;19459;53.044;8.910;2023-08-24T02:03:34;17.10;99.90
33095;DHT22;19459;53.044;8.910;2023-08-24T02:06:00;17.20;99.90
33095;DHT22;19459;53.044;8.910;2023-08-24T02:08:26;17.10;99.90
33095;DHT22;19459;53.044;8.910;2023-08-24T02:10:51;17.00;99.90
33095;DHT22;19459;53.044;8.910;2023-08-24T02:13:17;17.10;99.90
33095;DHT22;19459;53.044;8.910;2023-08-24T02:15:43;17.00;99.90
33095;DHT22;19459;53.044;8.910;2023-08-24T02:18:09;17.00;99.90
33095;DHT22;19459;53.044;8.910;2023-08-24T02:20:35;17.00;99.90
33095;DHT22;19459;53.044;8.910;2023-08-24T02:23:03;16.90;99.90
33095;DHT22;19459;53.044;8.910;2023-08-24T02:25:29;16.90;99.90
33095;DHT22;19459;53.044;8.910;2023-08-24T02:27:55;16.90;99.90
33095;DHT22;19459;53.044;8.910;2023-08-24T02:30:20;16.80;99.90
33095;DHT22;19459;53.044;8.910;2023-08-24T02:32:46;16.80;99.90
33095;DHT22;19459;53.044;8.910;2023-08-24T02:35:12;16.70;99.90
33095;DHT22;19459;53.044;8.910;2023-08-24T02:37:38;16.70;99.90
33095;DHT22;19459;53.044;8.910;2023-08-24T02:40:04;16.70;99.90
33095;DHT22;19459;53.044;8.910;2023-08-24T02:42:32;16.70;99.90
33095;DHT22;19459;53.044;8.910;2023-08-24T02:44:58;16.70;99.90
33095;DHT22;19459;53.044;8.910;2023-08-24T02:47:24;16.60;99.90
33095;DHT22;19459;53.044;8.910;2023-08-24T02:49:50;16.60;99.90
33095;DHT22;19459;53.044;8.910;2023-08-24T02:52:17;16.60;99.90
33095;DHT22;19459;53.044;8.910;2023-08-24T02:54:43;16.60;99.90
33095;DHT22;19459;53.044;8.910;2023-08-24T02:57:08;16.60;99.90
33095;DHT22;19459;53.044;8.910;2023-08-24T02:59:34;16.60;99.90
33095;DHT22;19459;53.044;8.910;2023-08-24T03:02:00;16.50;99.90
33095;DHT22;19459;53.044;8.910;2023-08-24T03:04:26;16.60;99.90
33095;DHT22;19459;53.044;8.910;2023-08-24T03:06:52;16.50;99.90
33095;DHT22;19459;53.044;8.910;2023-08-24T03:09:18;16.50;99.90
33095;DHT22;19459;53.044;8.910;2023-08-24T03:11:44;16.60;99.90
33095;DHT22;19459;53.044;8.910;2023-08-24T03:14:09;16.60;99.90
33095;DHT22;19459;53.044;8.910;2023-08-24T03:16:37;16.70;99.90
33095;DHT22;19459;53.044;8.910;2023-08-24T03:19:04;16.60;99.90
33095;DHT22;19459;53.044;8.910;2023-08-24T03:21:30;16.70;99.90
33095;DHT22;19459;53.044;8.910;2023-08-24T03:23:56;16.70;99.90
33095;DHT22;19459;53.044;8.910;2023-08-24T03:26:22;16.70;99.90
33095;DHT22;19459;53.044;8.910;2023-08-24T03:28:49;16.80;99.90
33095;DHT22;19459;53.044;8.910;2023-08-24T03:31:15;16.80;99.90
33095;DHT22;19459;53.044;8.910;2023-08-24T03:33:41;16.80;99.90
33095;DHT22;19459;53.044;8.910;2023-08-24T03:36:07;16.80;99.90
33095;DHT22;19459;53.044;8.910;2023-08-24T03:38:33;16.80;99.90
33095;DHT22;19459;53.044;8.910;2023-08-24T03:41:02;16.80;99.90
33095;DHT22;19459;53.044;8.910;2023-08-24T03:43:32;16.90;99.90
33095;DHT22;19459;53.044;8.910;2023-08-24T03:45:59;16.90;99.90
33095;DHT22;19459;53.044;8.910;2023-08-24T03:48:27;16.90;99.90
33095;DHT22;19459;53.044;8.910;2023-08-24T03:50:56;16.90;99.90
33095;DHT22;19459;53.044;8.910;2023-08-24T03:53:23;16.90;99.90
33095;DHT22;19459;53.044;8.910;2023-08-24T03:55:53;17.00;99.90
33095;DHT22;19459;53.044;8.910;2023-08-24T03:58:19;17.00;99.90
33095;DHT22;19459;53.044;8.910;2023-08-24T04:00:45;17.00;99.90
33095;DHT22;19459;53.044;8.910;2023-08-24T04:03:12;17.00;99.90
33095;DHT22;19459;53.044;8.910;2023-08-24T04:05:38;17.00;99.90
33095;DHT22;19459;53.044;8.910;2023-08-24T04:08:04;17.10;99.90
33095;DHT22;19459;53.044;8.910;2023-08-24T04:10:30;17.10;99.90
33095;DHT22;19459;53.044;8.910;2023-08-24T04:12:56;17.10;99.90
33095;DHT22;19459;53.044;8.910;2023-08-24T04:15:23;17.10;99.90
33095;DHT22;19459;53.044;8.910;2023-08-24T04:17:49;17.10;99.90
33095;DHT22;19459;53.044;8.910;2023-08-24T04:20:15;17.10;99.90
33095;DHT22;19459;53.044;8.910;2023-08-24T04:22:41;17.10;99.90
33095;DHT22;19459;53.044;8.910;2023-08-24T04:25:08;17.10;99.90
33095;DHT22;19459;53.044;8.910;2023-08-24T04:27:34;17.10;99.90
33095;DHT22;19459;53.044;8.910;2023-08-24T04:30:00;17.10;99.90
33095;DHT22;19459;53.044;8.910;2023-08-24T04:32:27;17.10;99.90
33095;DHT22;19459;53.044;8.910;2023-08-24T04:34:53;17.10;99.90
33095;DHT22;19459;53.044;8.910;2023-08-24T04:37:19;17.10;99.90
33095;DHT22;19459;53.044;8.910;2023-08-24T04:39:45;17.10;99.90
33095;DHT22;19459;53.044;8.910;2023-08-24T04:42:11;17.20;99.90
33095;DHT22;19459;53.044;8.910;2023-08-24T04:44:37;17.10;99.90
33095;DHT22;19459;53.044;8.910;2023-08-24T04:47:02;17.20;99.90
33095;DHT22;19459;53.044;8.910;2023-08-24T04:49:30;17.20;99.90
33095;DHT22;19459;53.044;8.910;2023-08-24T04:51:56;17.20;99.90
33095;DHT22;19459;53.044;8.910;2023-08-24T04:54:22;17.20;99.90
33095;DHT22;19459;53.044;8.910;2023-08-24T04:56:47;17.20;99.90
33095;DHT22;19459;53.044;8.910;2023-08-24T04:59:13;17.20;99.90
33095;DHT22;19459;53.044;8.910;2023-08-24T05:01:39;17.20;99.90
33095;DHT22;19459;53.044;8.910;2023-08-24T05:04:05;17.20;99.90
33095;DHT22;19459;53.044;8.910;2023-08-24T05:06:31;17.20;99.90
33095;DHT22;19459;53.044;8.910;2023-08-24T05:08:57;17.20;99.90
33095;DHT22;19459;53.044;8.910;2023-08-24T05:11:24;17.30;99.90
33095;DHT22;19459;53.044;8.910;2023-08-24T05:13:51;17.20;99.90
33095;DHT22;19459;53.044;8.910;2023-08-24T05:16:17;17.20;99.90
33095;DHT22;19459;53.044;8.910;2023-08-24T05:18:43;17.20;99.90
33095;DHT22;19459;53.044;8.910;2023-08-24T05:21:09;17.20;99.90
33095;DHT22;19459;53.044;8.910;2023-08-24T05:23:35;17.20;99.90
33095;DHT22;19459;53.044;8.910;2023-08-24T05:26:02;17.20;99.90
33095;DHT22;19459;53.044;8.910;2023-08-24T05:28:30;17.10;99.90
33095;DHT22;19459;53.044;8.910;2023-08-24T05:30:56;17.20;99.90
33095;DHT22;19459;53.044;8.910;2023-08-24T05:33:23;17.10;99.90
33095;DHT22;19459;53.044;8.910;2023-08-24T05:35:50;17.10;99.90
33095;DHT22;19459;53.044;8.910;2023-08-24T05:38:16;17.10;99.90
33095;DHT22;19459;53.044;8.910;2023-08-24T05:40:43;17.20;99.90
33095;DHT22;19459;53.044;8.910;2023-08-24T05:43:11;17.30;99.90
33095;DHT22;19459;53.044;8.910;2023-08-24T05:45:37;17.40;99.90
33095;DHT22;19459;53.044;8.910;2023-08-24T05:48:05;17.50;99.90
33095;DHT22;19459;53.044;8.910;2023-08-24T05:50:31;17.60;99.90
33095;DHT22;19459;53.044;8.910;2023-08-24T05:52:57;17.70;99.90
33095;DHT22;19459;53.044;8.910;2023-08-24T05:55:22;17.70;99.90
33095;DHT22;19459;53.044;8.910;2023-08-24T05:57:48;17.70;99.90
33095;DHT22;19459;53.044;8.910;2023-08-24T06:00:17;17.70;99.90
33095;DHT22;19459;53.044;8.910;2023-08-24T06:02:43;17.60;99.90
33095;DHT22;19459;53.044;8.910;2023-08-24T06:05:09;17.70;99.90
33095;DHT22;19459;53.044;8.910;2023-08-24T06:07:36;17.70;99.90
33095;DHT22;19459;53.044;8.910;2023-08-24T06:10:02;17.70;99.90
33095;DHT22;19459;53.044;8.910;2023-08-24T06:12:28;17.70;99.90
33095;DHT22;19459;53.044;8.910;2023-08-24T06:14:54;17.80;99.90
33095;DHT22;19459;53.044;8.910;2023-08-24T06:17:20;17.80;99.90
33095;DHT22;19459;53.044;8.910;2023-08-24T06:19:46;17.90;99.90
33095;DHT22;19459;53.044;8.910;2023-08-24T06:22:12;17.90;99.90
33095;DHT22;19459;53.044;8.910;2023-08-24T06:24:37;18.00;99.90
33095;DHT22;19459;53.044;8.910;2023-08-24T06:27:03;18.00;99.90
33095;DHT22;19459;53.044;8.910;2023-08-24T06:29:29;18.10;99.90
33095;DHT22;19459;53.044;8.910;2023-08-24T06:31:55;18.10;99.90
33095;DHT22;19459;53.044;8.910;2023-08-24T06:34:21;18.20;99.90
33095;DHT22;19459;53.044;8.910;2023-08-24T06:36:50;18.30;99.90
33095;DHT22;19459;53.044;8.910;2023-08-24T06:39:16;18.30;99.90
33095;DHT22;19459;53.044;8.910;2023-08-24T06:42:04;18.50;99.90
33095;DHT22;19459;53.044;8.910;2023-08-24T06:44:39;18.50;99.90
33095;DHT22;19459;53.044;8.910;2023-08-24T06:47:07;18.60;99.90
33095;DHT22;19459;53.044;8.910;2023-08-24T06:49:33;18.70;99.90
33095;DHT22;19459;53.044;8.910;2023-08-24T06:51:59;18.80;99.90
33095;DHT22;19459;53.044;8.910;2023-08-24T06:54:24;18.90;99.90
33095;DHT22;19459;53.044;8.910;2023-08-24T06:56:50;18.90;99.90
33095;DHT22;19459;53.044;8.910;2023-08-24T06:59:16;19.00;99.90
33095;DHT22;19459;53.044;8.910;2023-08-24T07:01:42;19.10;99.90
33095;DHT22;19459;53.044;8.910;2023-08-24T07:04:08;19.20;99.90
33095;DHT22;19459;53.044;8.910;2023-08-24T07:06:34;19.30;99.90
33095;DHT22;19459;53.044;8.910;2023-08-24T07:09:00;19.40;99.90
33095;DHT22;19459;53.044;8.910;2023-08-24T07:11:26;19.50;99.90
33095;DHT22;19459;53.044;8.910;2023-08-24T07:13:51;19.70;99.90
33095;DHT22;19459;53.044;8.910;2023-08-24T07:16:19;19.90;99.90
33095;DHT22;19459;53.044;8.910;2023-08-24T07:18:45;20.00;99.90
33095;DHT22;19459;53.044;8.910;2023-08-24T07:21:10;20.10;99.90
33095;DHT22;19459;53.044;8.910;2023-08-24T07:23:36;20.20;99.90
33095;DHT22;19459;53.044;8.910;2023-08-24T07:26:12;20.20;99.90
33095;DHT22;19459;53.044;8.910;2023-08-24T07:28:38;20.30;99.90
33095;DHT22;19459;53.044;8.910;2023-08-24T07:31:08;20.30;99.90
33095;DHT22;19459;53.044;8.910;2023-08-24T07:33:36;20.50;99.90
33095;DHT22;19459;53.044;8.910;2023-08-24T07:36:04;20.80;99.90
33095;DHT22;19459;53.044;8.910;2023-08-24T07:38:30;20.90;99.90
33095;DHT22;19459;53.044;8.910;2023-08-24T07:40:57;21.00;99.90
33095;DHT22;19459;53.044;8.910;2023-08-24T07:43:23;21.10;99.90
33095;DHT22;19459;53.044;8.910;2023-08-24T07:45:50;21.30;99.90
33095;DHT22;19459;53.044;8.910;2023-08-24T07:48:15;21.30;99.90
33095;DHT22;19459;53.044;8.910;2023-08-24T07:50:41;21.40;99.90
33095;DHT22;19459;53.044;8.910;2023-08-24T07:53:07;21.40;99.90
33095;DHT22;19459;53.044;8.910;2023-08-24T07:55:33;21.60;99.90
33095;DHT22;19459;53.044;8.910;2023-08-24T07:57:58;21.70;99.90
33095;DHT22;19459;53.044;8.910;2023-08-24T08:00:24;21.80;99.90
33095;DHT22;19459;53.044;8.910;2023-08-24T08:02:50;21.90;99.90
33095;DHT22;19459;53.044;8.910;2023-08-24T08:05:17;22.00;99.90
33095;DHT22;19459;53.044;8.910;2023-08-24T08:07:43;22.00;99.90
33095;DHT22;19459;53.044;8.910;2023-08-24T08:10:09;22.10;99.90
33095;DHT22;19459;53.044;8.910;2023-08-24T08:12:35;22.30;99.90
33095;DHT22;19459;53.044;8.910;2023-08-24T08:15:02;22.40;99.90
33095;DHT22;19459;53.044;8.910;2023-08-24T08:17:28;22.30;99.90
33095;DHT22;19459;53.044;8.910;2023-08-24T08:19:56;22.40;99.90
33095;DHT22;19459;53.044;8.910;2023-08-24T08:22:23;22.60;99.90
33095;DHT22;19459;53.044;8.910;2023-08-24T08:24:49;22.50;99.90
33095;DHT22;19459;53.044;8.910;2023-08-24T08:27:15;22.40;99.90
33095;DHT22;19459;53.044;8.910;2023-08-24T08:29:41;22.50;99.90
33095;DHT22;19459;53.044;8.910;2023-08-24T08:32:08;22.50;99.90
33095;DHT22;19459;53.044;8.910;2023-08-24T08:34:34;22.70;99.90
33095;DHT22;19459;53.044;8.910;2023-08-24T08:37:03;22.80;99.90
33095;DHT22;19459;53.044;8.910;2023-08-24T08:39:31;23.00;99.90
33095;DHT22;19459;53.044;8.910;2023-08-24T08:41:57;23.20;99.90
33095;DHT22;19459;53.044;8.910;2023-08-24T08:44:25;23.40;99.90
33095;DHT22;19459;53.044;8.910;2023-08-24T08:46:56;23.40;99.90
33095;DHT22;19459;53.044;8.910;2023-08-24T08:49:22;23.40;99.90
33095;DHT22;19459;53.044;8.910;2023-08-24T08:51:49;23.30;99.90
33095;DHT22;19459;53.044;8.910;2023-08-24T08:54:16;23.50;99.90
33095;DHT22;19459;53.044;8.910;2023-08-24T08:56:42;23.60;99.90
33095;DHT22;19459;53.044;8.910;2023-08-24T08:59:09;23.80;99.90
33095;DHT22;19459;53.044;8.910;2023-08-24T09:01:37;23.80;99.90
33095;DHT22;19459;53.044;8.910;2023-08-24T09:04:04;24.10;99.90
33095;DHT22;19459;53.044;8.910;2023-08-24T09:06:35;24.40;99.90
33095;DHT22;19459;53.044;8.910;2023-08-24T09:09:01;24.80;99.90
33095;DHT22;19459;53.044;8.910;2023-08-24T09:11:27;25.10;99.90
33095;DHT22;19459;53.044;8.910;2023-08-24T09:13:53;25.30;99.90
33095;DHT22;19459;53.044;8.910;2023-08-24T09:16:19;24.80;99.90
33095;DHT22;19459;53.044;8.910;2023-08-24T09:18:46;24.90;99.90
33095;DHT22;19459;53.044;8.910;2023-08-24T09:21:14;25.40;99.90
33095;DHT22;19459;53.044;8.910;2023-08-24T09:23:54;25.90;99.90
33095;DHT22;19459;53.044;8.910;2023-08-24T09:26:31;25.80;99.90
33095;DHT22;19459;53.044;8.910;2023-08-24T09:29:10;25.50;99.90
33095;DHT22;19459;53.044;8.910;2023-08-24T09:31:40;25.60;99.90
33095;DHT22;19459;53.044;8.910;2023-08-24T09:34:06;26.00;99.90
33095;DHT22;19459;53.044;8.910;2023-08-24T09:36:33;26.30;99.90
33095;DHT22;19459;53.044;8.910;2023-08-24T09:39:00;26.10;99.90
33095;DHT22;19459;53.044;8.910;2023-08-24T09:41:39;26.40;99.90
33095;DHT22;19459;53.044;8.910;2023-08-24T09:44:06;26.50;99.90
33095;DHT22;19459;53.044;8.910;2023-08-24T09:46:32;26.40;99.90
33095;DHT22;19459;53.044;8.910;2023-08-24T09:48:58;26.40;99.90
33095;DHT22;19459;53.044;8.910;2023-08-24T09:51:29;26.50;99.90
33095;DHT22;19459;53.044;8.910;2023-08-24T09:53:57;26.70;99.90
33095;DHT22;19459;53.044;8.910;2023-08-24T09:56:35;26.60;99.90
33095;DHT22;19459;53.044;8.910;2023-08-24T09:59:13;27.00;99.90
33095;DHT22;19459;53.044;8.910;2023-08-24T10:01:45;26.60;99.60
33095;DHT22;19459;53.044;8.910;2023-08-24T10:04:27;26.60;99.90
33095;DHT22;19459;53.044;8.910;2023-08-24T10:07:15;26.90;99.90
33095;DHT22;19459;53.044;8.910;2023-08-24T10:09:52;27.40;99.90
33095;DHT22;19459;53.044;8.910;2023-08-24T10:12:23;27.40;99.70
33095;DHT22;19459;53.044;8.910;2023-08-24T10:15:00;27.70;99.20
33095;DHT22;19459;53.044;8.910;2023-08-24T10:17:32;27.70;98.50
33095;DHT22;19459;53.044;8.910;2023-08-24T10:20:05;27.60;98.80
33095;DHT22;19459;53.044;8.910;2023-08-24T10:22:34;27.60;97.70
33095;DHT22;19459;53.044;8.910;2023-08-24T10:25:02;28.40;98.10
33095;DHT22;19459;53.044;8.910;2023-08-24T10:27:29;28.50;98.00
33095;DHT22;19459;53.044;8.910;2023-08-24T10:29:55;29.30;98.10
33095;DHT22;19459;53.044;8.910;2023-08-24T10:32:24;29.70;96.70
33095;DHT22;19459;53.044;8.910;2023-08-24T10:34:50;30.10;96.20
33095;DHT22;19459;53.044;8.910;2023-08-24T10:37:16;30.00;94.80
33095;DHT22;19459;53.044;8.910;2023-08-24T10:39:46;29.60;95.10
33095;DHT22;19459;53.044;8.910;2023-08-24T10:42:13;30.00;95.90
33095;DHT22;19459;53.044;8.910;2023-08-24T10:44:46;30.00;95.30
33095;DHT22;19459;53.044;8.910;2023-08-24T10:47:20;29.60;95.00
33095;DHT22;19459;53.044;8.910;2023-08-24T10:54:51;30.40;95.50
33095;DHT22;19459;53.044;8.910;2023-08-24T10:57:26;30.50;94.70
33095;DHT22;19459;53.044;8.910;2023-08-24T11:02:25;30.10;96.00
33095;DHT22;19459;53.044;8.910;2023-08-24T11:05:21;30.40;94.40
33095;DHT22;19459;53.044;8.910;2023-08-24T11:08:04;30.70;95.40
33095;DHT22;19459;53.044;8.910;2023-08-24T11:13:15;30.70;94.30
33095;DHT22;19459;53.044;8.910;2023-08-24T11:15:46;30.20;93.10
33095;DHT22;19459;53.044;8.910;2023-08-24T11:20:45;29.90;94.20
33095;DHT22;19459;53.044;8.910;2023-08-24T11:23:21;29.60;95.10
33095;DHT22;19459;53.044;8.910;2023-08-24T11:25:50;29.40;95.00
33095;DHT22;19459;53.044;8.910;2023-08-24T11:28:20;28.90;93.90
33095;DHT22;19459;53.044;8.910;2023-08-24T11:30:46;28.80;94.40
33095;DHT22;19459;53.044;8.910;2023-08-24T11:33:13;28.90;96.30
33095;DHT22;19459;53.044;8.910;2023-08-24T11:35:44;28.90;95.40
33095;DHT22;19459;53.044;8.910;2023-08-24T11:38:10;29.10;94.40
33095;DHT22;19459;53.044;8.910;2023-08-24T11:40:37;29.10;93.90
33095;DHT22;19459;53.044;8.910;2023-08-24T11:43:03;29.10;94.80
33095;DHT22;19459;53.044;8.910;2023-08-24T11:45:32;29.00;94.10
33095;DHT22;19459;53.044;8.910;2023-08-24T11:47:59;28.90;95.10
33095;DHT22;19459;53.044;8.910;2023-08-24T11:50:30;29.00;96.10
33095;DHT22;19459;53.044;8.910;2023-08-24T11:52:56;29.40;95.30
33095;DHT22;19459;53.044;8.910;2023-08-24T11:55:23;29.80;96.10
33095;DHT22;19459;53.044;8.910;2023-08-24T11:57:50;30.00;94.60
33095;DHT22;19459;53.044;8.910;2023-08-24T12:00:19;30.00;93.70
33095;DHT22;19459;53.044;8.910;2023-08-24T12:02:47;30.10;93.00
33095;DHT22;19459;53.044;8.910;2023-08-24T12:05:24;30.60;94.80
33095;DHT22;19459;53.044;8.910;2023-08-24T12:07:54;30.80;93.80
33095;DHT22;19459;53.044;8.910;2023-08-24T12:10:21;31.10;93.60
33095;DHT22;19459;53.044;8.910;2023-08-24T12:12:47;30.60;93.50
33095;DHT22;19459;53.044;8.910;2023-08-24T12:15:20;30.30;93.00
33095;DHT22;19459;53.044;8.910;2023-08-24T12:17:47;30.00;93.20
33095;DHT22;19459;53.044;8.910;2023-08-24T12:20:21;29.90;94.80
33095;DHT22;19459;53.044;8.910;2023-08-24T12:22:55;29.90;94.80
33095;DHT22;19459;53.044;8.910;2023-08-24T12:25:24;29.60;95.40
33095;DHT22;19459;53.044;8.910;2023-08-24T12:27:51;29.30;94.50
33095;DHT22;19459;53.044;8.910;2023-08-24T12:30:19;29.40;95.10
33095;DHT22;19459;53.044;8.910;2023-08-24T12:32:48;28.90;94.70
33095;DHT22;19459;53.044;8.910;2023-08-24T12:35:16;29.00;96.60
33095;DHT22;19459;53.044;8.910;2023-08-24T12:37:42;28.90;94.70
33095;DHT22;19459;53.044;8.910;2023-08-24T12:40:08;29.10;97.40
33095;DHT22;19459;53.044;8.910;2023-08-24T12:42:34;29.20;95.80
33095;DHT22;19459;53.044;8.910;2023-08-24T12:45:01;29.10;94.00
33095;DHT22;19459;53.044;8.910;2023-08-24T12:47:26;29.10;94.10
33095;DHT22;19459;53.044;8.910;2023-08-24T12:49:52;28.90;94.60
33095;DHT22;19459;53.044;8.910;2023-08-24T12:52:22;29.00;94.80
33095;DHT22;19459;53.044;8.910;2023-08-24T12:54:50;29.20;95.70
33095;DHT22;19459;53.044;8.910;2023-08-24T12:57:15;29.10;94.20
33095;DHT22;19459;53.044;8.910;2023-08-24T12:59:41;29.00;94.90
33095;DHT22;19459;53.044;8.910;2023-08-24T13:02:07;28.90;93.80
33095;DHT22;19459;53.044;8.910;2023-08-24T13:04:33;28.80;94.70
33095;DHT22;19459;53.044;8.910;2023-08-24T13:06:59;29.00;95.80
33095;DHT22;19459;53.044;8.910;2023-08-24T13:09:24;29.20;94.80
33095;DHT22;19459;53.044;8.910;2023-08-24T13:11:51;29.50;94.40
33095;DHT22;19459;53.044;8.910;2023-08-24T13:14:17;29.90;95.50
33095;DHT22;19459;53.044;8.910;2023-08-24T13:16:43;30.20;95.90
33095;DHT22;19459;53.044;8.910;2023-08-24T13:19:09;30.40;94.10
33095;DHT22;19459;53.044;8.910;2023-08-24T13:21:34;30.50;94.90
33095;DHT22;19459;53.044;8.910;2023-08-24T13:24:00;30.20;92.70
33095;DHT22;19459;53.044;8.910;2023-08-24T13:26:29;30.40;93.80
33095;DHT22;19459;53.044;8.910;2023-08-24T13:28:57;30.50;94.30
33095;DHT22;19459;53.044;8.910;2023-08-24T13:31:23;30.40;92.90
33095;DHT22;19459;53.044;8.910;2023-08-24T13:33:49;30.60;93.40
33095;DHT22;19459;53.044;8.910;2023-08-24T13:36:15;30.70;93.50
33095;DHT22;19459;53.044;8.910;2023-08-24T13:38:41;30.40;92.90
33095;DHT22;19459;53.044;8.910;2023-08-24T13:41:07;30.00;93.30
33095;DHT22;19459;53.044;8.910;2023-08-24T13:43:32;30.20;94.00
33095;DHT22;19459;53.044;8.910;2023-08-24T13:45:58;30.30;93.70
33095;DHT22;19459;53.044;8.910;2023-08-24T13:48:24;30.00;93.20
33095;DHT22;19459;53.044;8.910;2023-08-24T13:50:53;30.00;92.10
33095;DHT22;19459;53.044;8.910;2023-08-24T13:53:19;30.20;93.40
33095;DHT22;19459;53.044;8.910;2023-08-24T13:55:45;30.10;91.50
33095;DHT22;19459;53.044;8.910;2023-08-24T13:58:11;30.20;92.00
33095;DHT22;19459;53.044;8.910;2023-08-24T14:00:36;30.10;91.90
33095;DHT22;19459;53.044;8.910;2023-08-24T14:03:03;29.90;93.40
33095;DHT22;19459;53.044;8.910;2023-08-24T14:05:29;29.60;91.90
33095;DHT22;19459;53.044;8.910;2023-08-24T14:07:55;29.40;92.50
33095;DHT22;19459;53.044;8.910;2023-08-24T14:10:24;29.40;92.00
33095;DHT22;19459;53.044;8.910;2023-08-24T14:12:50;29.40;92.30
33095;DHT22;19459;53.044;8.910;2023-08-24T14:15:15;29.30;92.80
33095;DHT22;19459;53.044;8.910;2023-08-24T14:17:41;29.10;92.60
33095;DHT22;19459;53.044;8.910;2023-08-24T14:20:07;29.10;93.60
33095;DHT22;19459;53.044;8.910;2023-08-24T14:22:34;29.50;93.30
33095;DHT22;19459;53.044;8.910;2023-08-24T14:25:00;29.60;92.90
33095;DHT22;19459;53.044;8.910;2023-08-24T14:27:26;29.90;94.10
33095;DHT22;19459;53.044;8.910;2023-08-24T14:29:51;29.70;92.70
33095;DHT22;19459;53.044;8.910;2023-08-24T14:32:17;29.50;94.10
33095;DHT22;19459;53.044;8.910;2023-08-24T14:34:43;29.30;93.70
33095;DHT22;19459;53.044;8.910;2023-08-24T14:37:09;29.00;93.30
33095;DHT22;19459;53.044;8.910;2023-08-24T14:39:35;28.90;93.60
33095;DHT22;19459;53.044;8.910;2023-08-24T14:42:01;28.90;93.70
33095;DHT22;19459;53.044;8.910;2023-08-24T14:44:28;28.60;94.20
33095;DHT22;19459;53.044;8.910;2023-08-24T14:46:54;28.50;94.10
33095;DHT22;19459;53.044;8.910;2023-08-24T14:49:19;28.40;94.20
33095;DHT22;19459;53.044;8.910;2023-08-24T14:51:45;28.40;94.40
33095;DHT22;19459;53.044;8.910;2023-08-24T14:54:12;28.30;94.20
33095;DHT22;19459;53.044;8.910;2023-08-24T14:56:41;28.40;94.10
33095;DHT22;19459;53.044;8.910;2023-08-24T14:59:07;28.30;94.10
33095;DHT22;19459;53.044;8.910;2023-08-24T15:01:33;28.30;94.30
33095;DHT22;19459;53.044;8.910;2023-08-24T15:03:59;28.30;94.10
33095;DHT22;19459;53.044;8.910;2023-08-24T15:06:24;28.20;94.40
33095;DHT22;19459;53.044;8.910;2023-08-24T15:08:50;28.20;94.50
33095;DHT22;19459;53.044;8.910;2023-08-24T15:11:18;28.10;93.90
33095;DHT22;19459;53.044;8.910;2023-08-24T15:13:44;28.10;94.10
33095;DHT22;19459;53.044;8.910;2023-08-24T15:16:09;28.10;94.60
33095;DHT22;19459;53.044;8.910;2023-08-24T15:18:36;28.10;96.00
33095;DHT22;19459;53.044;8.910;2023-08-24T15:21:02;28.00;94.80
33095;DHT22;19459;53.044;8.910;2023-08-24T15:23:30;28.00;95.60
33095;DHT22;19459;53.044;8.910;2023-08-24T15:25:57;28.00;94.30
33095;DHT22;19459;53.044;8.910;2023-08-24T15:28:25;28.00;94.70
33095;DHT22;19459;53.044;8.910;2023-08-24T15:30:51;27.90;94.80
33095;DHT22;19459;53.044;8.910;2023-08-24T15:33:18;27.80;94.70
33095;DHT22;19459;53.044;8.910;2023-08-24T15:35:44;27.70;94.90
33095;DHT22;19459;53.044;8.910;2023-08-24T15:38:11;27.60;94.70
33095;DHT22;19459;53.044;8.910;2023-08-24T15:40:37;27.60;95.30
33095;DHT22;19459;53.044;8.910;2023-08-24T15:43:05;27.50;95.20
33095;DHT22;19459;53.044;8.910;2023-08-24T15:45:31;27.50;94.90
33095;DHT22;19459;53.044;8.910;2023-08-24T15:47:58;27.50;95.80